sensor_id;sensor_type;location;lat;lon;timestamp;P1;durP1;ratioP1;P2;durP2;ratioP2
29500;SDS011;16450;50.288;10.966;2023-06-26T00:01:39;7.17;;;5.43;;
29500;SDS011;16450;50.288;10.966;2023-06-26T00:04:42;6.10;;;5.03;;
29500;SDS011;16450;50.288;10.966;2023-06-26T00:07:45;7.23;;;5.13;;
29500;SDS011;16450;50.288;10.966;2023-06-26T00:10:47;6.93;;;5.37;;
29500;SDS011;16450;50.288;10.966;2023-06-26T00:13:52;8.30;;;5.40;;
29500;SDS011;16450;50.288;10.966;2023-06-26T00:16:54;8.13;;;5.30;;
29500;SDS011;16450;50.288;10.966;2023-06-26T00:19:56;7.40;;;5.83;;
29500;SDS011;16450;50.288;10.966;2023-06-26T00:22:58;6.73;;;5.37;;
29500;SDS011;16450;50.288;10.966;2023-06-26T00:26:00;6.40;;;5.13;;
29500;SDS011;16450;50.288;10.966;2023-06-26T00:29:02;6.97;;;5.40;;
29500;SDS011;16450;50.288;10.966;2023-06-26T00:32:04;9.10;;;5.67;;
29500;SDS011;16450;50.288;10.966;2023-06-26T00:35:07;7.27;;;5.70;;
29500;SDS011;16450;50.288;10.966;2023-06-26T00:38:09;10.63;;;5.67;;
29500;SDS011;16450;50.288;10.966;2023-06-26T00:41:11;7.50;;;5.50;;
29500;SDS011;16450;50.288;10.966;2023-06-26T00:44:14;8.10;;;5.23;;
29500;SDS011;16450;50.288;10.966;2023-06-26T00:47:16;6.80;;;5.77;;
29500;SDS011;16450;50.288;10.966;2023-06-26T00:50:19;8.50;;;5.93;;
29500;SDS011;16450;50.288;10.966;2023-06-26T00:53:21;7.33;;;5.50;;
29500;SDS011;16450;50.288;10.966;2023-06-26T00:56:24;6.87;;;5.00;;
29500;SDS011;16450;50.288;10.966;2023-06-26T00:59:25;7.63;;;5.63;;
29500;SDS011;16450;50.288;10.966;2023-06-26T01:02:27;7.93;;;5.10;;
29500;SDS011;16450;50.288;10.966;2023-06-26T01:05:35;7.03;;;5.40;;
29500;SDS011;16450;50.288;10.966;2023-06-26T01:08:37;8.60;;;5.50;;
29500;SDS011;16450;50.288;10.966;2023-06-26T01:11:42;7.33;;;5.40;;
29500;SDS011;16450;50.288;10.966;2023-06-26T01:14:44;8.97;;;5.80;;
29500;SDS011;16450;50.288;10.966;2023-06-26T01:17:46;6.53;;;5.13;;
29500;SDS011;16450;50.288;10.966;2023-06-26T01:20:49;6.60;;;5.30;;
29500;SDS011;16450;50.288;10.966;2023-06-26T01:24:02;6.53;;;5.47;;
29500;SDS011;16450;50.288;10.966;2023-06-26T01:27:11;8.83;;;5.47;;
29500;SDS011;16450;50.288;10.966;2023-06-26T01:30:13;7.43;;;5.27;;
29500;SDS011;16450;50.288;10.966;2023-06-26T01:33:18;8.00;;;5.37;;
29500;SDS011;16450;50.288;10.966;2023-06-26T01:36:20;6.87;;;5.40;;
29500;SDS011;16450;50.288;10.966;2023-06-26T01:39:23;8.77;;;6.00;;
29500;SDS011;16450;50.288;10.966;2023-06-26T01:42:25;6.67;;;5.40;;
29500;SDS011;16450;50.288;10.966;2023-06-26T01:45:29;8.83;;;5.97;;
29500;SDS011;16450;50.288;10.966;2023-06-26T01:48:35;7.40;;;5.47;;
29500;SDS011;16450;50.288;10.966;2023-06-26T01:51:42;7.60;;;5.13;;
29500;SDS011;16450;50.288;10.966;2023-06-26T01:54:53;8.50;;;6.00;;
29500;SDS011;16450;50.288;10.966;2023-06-26T01:57:56;6.90;;;5.63;;
29500;SDS011;16450;50.288;10.966;2023-06-26T02:00:59;6.77;;;5.37;;
29500;SDS011;16450;50.288;10.966;2023-06-26T02:04:01;8.07;;;5.10;;
29500;SDS011;16450;50.288;10.966;2023-06-26T02:07:03;7.70;;;5.47;;
29500;SDS011;16450;50.288;10.966;2023-06-26T02:10:05;10.63;;;5.40;;
29500;SDS011;16450;50.288;10.966;2023-06-26T02:13:07;7.20;;;5.40;;
29500;SDS011;16450;50.288;10.966;2023-06-26T02:16:09;9.23;;;5.47;;
29500;SDS011;16450;50.288;10.966;2023-06-26T02:19:11;8.00;;;5.30;;
29500;SDS011;16450;50.288;10.966;2023-06-26T02:22:13;7.70;;;5.40;;
29500;SDS011;16450;50.288;10.966;2023-06-26T02:25:17;7.50;;;5.80;;
29500;SDS011;16450;50.288;10.966;2023-06-26T02:28:19;8.37;;;5.30;;
29500;SDS011;16450;50.288;10.966;2023-06-26T02:31:21;7.40;;;5.20;;
29500;SDS011;16450;50.288;10.966;2023-06-26T02:34:23;7.33;;;5.10;;
29500;SDS011;16450;50.288;10.966;2023-06-26T02:37:25;7.03;;;5.37;;
29500;SDS011;16450;50.288;10.966;2023-06-26T02:40:27;6.47;;;5.27;;
29500;SDS011;16450;50.288;10.966;2023-06-26T02:43:28;10.40;;;5.40;;
29500;SDS011;16450;50.288;10.966;2023-06-26T02:46:31;7.97;;;5.97;;
29500;SDS011;16450;50.288;10.966;2023-06-26T02:49:33;7.73;;;5.40;;
29500;SDS011;16450;50.288;10.966;2023-06-26T02:52:35;8.50;;;5.60;;
29500;SDS011;16450;50.288;10.966;2023-06-26T02:55:36;10.57;;;5.63;;
29500;SDS011;16450;50.288;10.966;2023-06-26T02:58:38;8.70;;;5.67;;
29500;SDS011;16450;50.288;10.966;2023-06-26T03:01:40;9.60;;;5.60;;
29500;SDS011;16450;50.288;10.966;2023-06-26T03:04:42;7.77;;;6.10;;
29500;SDS011;16450;50.288;10.966;2023-06-26T03:07:44;9.67;;;5.63;;
29500;SDS011;16450;50.288;10.966;2023-06-26T03:10:46;8.40;;;5.30;;
29500;SDS011;16450;50.288;10.966;2023-06-26T03:13:48;6.73;;;5.57;;
29500;SDS011;16450;50.288;10.966;2023-06-26T03:16:50;7.03;;;5.43;;
29500;SDS011;16450;50.288;10.966;2023-06-26T03:19:54;9.30;;;5.40;;
29500;SDS011;16450;50.288;10.966;2023-06-26T03:22:56;7.60;;;5.77;;
29500;SDS011;16450;50.288;10.966;2023-06-26T03:25:58;9.13;;;5.90;;
29500;SDS011;16450;50.288;10.966;2023-06-26T03:29:00;7.63;;;5.80;;
29500;SDS011;16450;50.288;10.966;2023-06-26T03:32:02;7.97;;;5.70;;
29500;SDS011;16450;50.288;10.966;2023-06-26T03:35:04;7.73;;;5.70;;
29500;SDS011;16450;50.288;10.966;2023-06-26T03:38:07;8.63;;;5.57;;
29500;SDS011;16450;50.288;10.966;2023-06-26T03:41:09;10.60;;;5.77;;
29500;SDS011;16450;50.288;10.966;2023-06-26T03:44:11;8.63;;;5.43;;
29500;SDS011;16450;50.288;10.966;2023-06-26T03:47:13;7.13;;;5.80;;
29500;SDS011;16450;50.288;10.966;2023-06-26T03:50:17;7.73;;;5.60;;
29500;SDS011;16450;50.288;10.966;2023-06-26T03:53:20;8.37;;;5.63;;
29500;SDS011;16450;50.288;10.966;2023-06-26T03:56:22;7.33;;;5.93;;
29500;SDS011;16450;50.288;10.966;2023-06-26T03:59:24;7.97;;;6.00;;
29500;SDS011;16450;50.288;10.966;2023-06-26T04:02:26;8.63;;;5.80;;
29500;SDS011;16450;50.288;10.966;2023-06-26T04:05:28;7.20;;;5.50;;
29500;SDS011;16450;50.288;10.966;2023-06-26T04:08:30;8.50;;;5.60;;
29500;SDS011;16450;50.288;10.966;2023-06-26T04:11:33;8.40;;;5.50;;
29500;SDS011;16450;50.288;10.966;2023-06-26T04:14:35;7.80;;;5.93;;
29500;SDS011;16450;50.288;10.966;2023-06-26T04:17:36;7.37;;;5.50;;
29500;SDS011;16450;50.288;10.966;2023-06-26T04:20:39;7.77;;;6.20;;
29500;SDS011;16450;50.288;10.966;2023-06-26T04:24:03;8.93;;;5.73;;
29500;SDS011;16450;50.288;10.966;2023-06-26T04:27:05;7.67;;;5.27;;
29500;SDS011;16450;50.288;10.966;2023-06-26T04:30:09;8.30;;;5.90;;
29500;SDS011;16450;50.288;10.966;2023-06-26T04:33:11;7.13;;;5.80;;
29500;SDS011;16450;50.288;10.966;2023-06-26T04:36:14;9.70;;;6.07;;
29500;SDS011;16450;50.288;10.966;2023-06-26T04:39:16;11.37;;;6.33;;
29500;SDS011;16450;50.288;10.966;2023-06-26T04:42:19;8.87;;;6.03;;
29500;SDS011;16450;50.288;10.966;2023-06-26T04:45:23;8.23;;;6.00;;
29500;SDS011;16450;50.288;10.966;2023-06-26T04:48:26;8.27;;;5.90;;
29500;SDS011;16450;50.288;10.966;2023-06-26T04:51:35;8.93;;;6.07;;
29500;SDS011;16450;50.288;10.966;2023-06-26T04:54:42;7.72;;;5.55;;
29500;SDS011;16450;50.288;10.966;2023-06-26T04:57:45;7.53;;;5.40;;
29500;SDS011;16450;50.288;10.966;2023-06-26T05:00:49;6.85;;;5.93;;
29500;SDS011;16450;50.288;10.966;2023-06-26T05:03:51;9.73;;;6.27;;
29500;SDS011;16450;50.288;10.966;2023-06-26T05:06:53;7.22;;;5.60;;
29500;SDS011;16450;50.288;10.966;2023-06-26T05:09:55;9.05;;;5.72;;
29500;SDS011;16450;50.288;10.966;2023-06-26T05:12:57;8.18;;;5.88;;
29500;SDS011;16450;50.288;10.966;2023-06-26T05:15:59;6.82;;;5.13;;
29500;SDS011;16450;50.288;10.966;2023-06-26T05:19:01;6.65;;;5.30;;
29500;SDS011;16450;50.288;10.966;2023-06-26T05:22:04;14.00;;;7.82;;
29500;SDS011;16450;50.288;10.966;2023-06-26T05:25:09;8.25;;;6.30;;
29500;SDS011;16450;50.288;10.966;2023-06-26T05:28:11;8.30;;;5.70;;
29500;SDS011;16450;50.288;10.966;2023-06-26T05:31:15;6.88;;;5.10;;
29500;SDS011;16450;50.288;10.966;2023-06-26T05:34:17;7.60;;;5.30;;
29500;SDS011;16450;50.288;10.966;2023-06-26T05:37:23;6.30;;;5.22;;
29500;SDS011;16450;50.288;10.966;2023-06-26T05:40:27;5.63;;;4.85;;
29500;SDS011;16450;50.288;10.966;2023-06-26T05:43:29;5.60;;;5.00;;
29500;SDS011;16450;50.288;10.966;2023-06-26T05:46:32;5.50;;;5.00;;
29500;SDS011;16450;50.288;10.966;2023-06-26T05:49:34;5.80;;;5.00;;
29500;SDS011;16450;50.288;10.966;2023-06-26T05:52:36;6.05;;;5.18;;
29500;SDS011;16450;50.288;10.966;2023-06-26T05:55:40;5.55;;;4.95;;
29500;SDS011;16450;50.288;10.966;2023-06-26T05:58:44;6.75;;;4.97;;
29500;SDS011;16450;50.288;10.966;2023-06-26T06:01:47;5.78;;;5.15;;
29500;SDS011;16450;50.288;10.966;2023-06-26T06:04:49;7.05;;;5.20;;
29500;SDS011;16450;50.288;10.966;2023-06-26T06:07:51;10.07;;;5.38;;
29500;SDS011;16450;50.288;10.966;2023-06-26T06:10:53;6.07;;;5.38;;
29500;SDS011;16450;50.288;10.966;2023-06-26T06:13:54;8.88;;;5.22;;
29500;SDS011;16450;50.288;10.966;2023-06-26T06:16:56;6.35;;;5.03;;
29500;SDS011;16450;50.288;10.966;2023-06-26T06:19:58;6.28;;;5.25;;
29500;SDS011;16450;50.288;10.966;2023-06-26T06:23:00;5.72;;;5.13;;
29500;SDS011;16450;50.288;10.966;2023-06-26T06:26:02;6.90;;;5.10;;
29500;SDS011;16450;50.288;10.966;2023-06-26T06:29:03;5.57;;;5.00;;
29500;SDS011;16450;50.288;10.966;2023-06-26T06:32:05;6.75;;;4.95;;
29500;SDS011;16450;50.288;10.966;2023-06-26T06:35:08;7.03;;;5.45;;
29500;SDS011;16450;50.288;10.966;2023-06-26T06:38:11;6.15;;;4.82;;
29500;SDS011;16450;50.288;10.966;2023-06-26T06:41:13;6.43;;;4.88;;
29500;SDS011;16450;50.288;10.966;2023-06-26T06:44:15;5.63;;;4.85;;
29500;SDS011;16450;50.288;10.966;2023-06-26T06:47:17;6.90;;;5.30;;
29500;SDS011;16450;50.288;10.966;2023-06-26T06:50:18;6.45;;;5.32;;
29500;SDS011;16450;50.288;10.966;2023-06-26T06:53:20;9.15;;;5.40;;
29500;SDS011;16450;50.288;10.966;2023-06-26T06:56:22;12.18;;;5.65;;
29500;SDS011;16450;50.288;10.966;2023-06-26T06:59:24;7.65;;;5.40;;
29500;SDS011;16450;50.288;10.966;2023-06-26T07:02:26;7.43;;;5.95;;
29500;SDS011;16450;50.288;10.966;2023-06-26T07:05:28;6.95;;;5.70;;
29500;SDS011;16450;50.288;10.966;2023-06-26T07:08:30;7.20;;;5.03;;
29500;SDS011;16450;50.288;10.966;2023-06-26T07:11:32;6.70;;;5.20;;
29500;SDS011;16450;50.288;10.966;2023-06-26T07:14:34;6.50;;;5.50;;
29500;SDS011;16450;50.288;10.966;2023-06-26T07:17:36;6.93;;;5.15;;
29500;SDS011;16450;50.288;10.966;2023-06-26T07:20:41;8.43;;;5.32;;
29500;SDS011;16450;50.288;10.966;2023-06-26T07:23:43;9.38;;;5.28;;
29500;SDS011;16450;50.288;10.966;2023-06-26T07:26:45;6.57;;;5.07;;
29500;SDS011;16450;50.288;10.966;2023-06-26T07:29:51;6.82;;;5.07;;
29500;SDS011;16450;50.288;10.966;2023-06-26T07:32:52;8.00;;;5.10;;
29500;SDS011;16450;50.288;10.966;2023-06-26T07:35:54;7.13;;;5.05;;
29500;SDS011;16450;50.288;10.966;2023-06-26T07:38:56;8.00;;;5.50;;
29500;SDS011;16450;50.288;10.966;2023-06-26T07:41:58;6.85;;;5.35;;
29500;SDS011;16450;50.288;10.966;2023-06-26T07:45:03;5.85;;;5.20;;
29500;SDS011;16450;50.288;10.966;2023-06-26T07:48:12;6.80;;;5.47;;
29500;SDS011;16450;50.288;10.966;2023-06-26T07:51:14;7.90;;;5.47;;
29500;SDS011;16450;50.288;10.966;2023-06-26T07:54:15;7.13;;;5.60;;
29500;SDS011;16450;50.288;10.966;2023-06-26T07:57:17;7.03;;;5.63;;
29500;SDS011;16450;50.288;10.966;2023-06-26T08:00:19;9.23;;;5.30;;
29500;SDS011;16450;50.288;10.966;2023-06-26T08:03:21;6.57;;;5.68;;
29500;SDS011;16450;50.288;10.966;2023-06-26T08:06:35;6.00;;;5.00;;
29500;SDS011;16450;50.288;10.966;2023-06-26T08:09:41;8.52;;;5.78;;
29500;SDS011;16450;50.288;10.966;2023-06-26T08:12:43;6.60;;;5.20;;
29500;SDS011;16450;50.288;10.966;2023-06-26T08:15:46;8.57;;;5.78;;
29500;SDS011;16450;50.288;10.966;2023-06-26T08:18:48;7.50;;;5.72;;
29500;SDS011;16450;50.288;10.966;2023-06-26T08:21:51;6.85;;;5.55;;
29500;SDS011;16450;50.288;10.966;2023-06-26T08:24:52;7.05;;;5.50;;
29500;SDS011;16450;50.288;10.966;2023-06-26T08:27:54;6.10;;;5.20;;
29500;SDS011;16450;50.288;10.966;2023-06-26T08:30:56;8.40;;;5.50;;
29500;SDS011;16450;50.288;10.966;2023-06-26T08:33:58;7.95;;;5.43;;
29500;SDS011;16450;50.288;10.966;2023-06-26T08:37:00;7.55;;;5.60;;
29500;SDS011;16450;50.288;10.966;2023-06-26T08:40:03;6.68;;;5.80;;
29500;SDS011;16450;50.288;10.966;2023-06-26T08:43:06;5.78;;;4.95;;
29500;SDS011;16450;50.288;10.966;2023-06-26T08:46:08;6.78;;;5.47;;
29500;SDS011;16450;50.288;10.966;2023-06-26T08:49:29;6.43;;;5.57;;
29500;SDS011;16450;50.288;10.966;2023-06-26T08:52:50;7.72;;;5.70;;
29500;SDS011;16450;50.288;10.966;2023-06-26T08:56:00;7.40;;;5.55;;
29500;SDS011;16450;50.288;10.966;2023-06-26T08:59:04;7.05;;;5.60;;
29500;SDS011;16450;50.288;10.966;2023-06-26T09:02:06;7.50;;;5.50;;
29500;SDS011;16450;50.288;10.966;2023-06-26T09:05:09;6.15;;;5.15;;
29500;SDS011;16450;50.288;10.966;2023-06-26T09:08:12;6.32;;;5.20;;
29500;SDS011;16450;50.288;10.966;2023-06-26T09:11:15;6.13;;;4.95;;
29500;SDS011;16450;50.288;10.966;2023-06-26T09:14:16;7.13;;;5.82;;
29500;SDS011;16450;50.288;10.966;2023-06-26T09:17:19;7.38;;;5.55;;
29500;SDS011;16450;50.288;10.966;2023-06-26T09:20:27;7.05;;;5.30;;
29500;SDS011;16450;50.288;10.966;2023-06-26T09:23:30;6.63;;;5.25;;
29500;SDS011;16450;50.288;10.966;2023-06-26T09:26:34;6.85;;;5.40;;
29500;SDS011;16450;50.288;10.966;2023-06-26T09:29:39;7.57;;;5.55;;
29500;SDS011;16450;50.288;10.966;2023-06-26T09:32:41;6.00;;;5.28;;
29500;SDS011;16450;50.288;10.966;2023-06-26T09:35:43;8.05;;;5.40;;
29500;SDS011;16450;50.288;10.966;2023-06-26T09:38:46;5.80;;;5.20;;
29500;SDS011;16450;50.288;10.966;2023-06-26T09:41:47;6.18;;;5.05;;
29500;SDS011;16450;50.288;10.966;2023-06-26T09:44:49;7.07;;;5.03;;
29500;SDS011;16450;50.288;10.966;2023-06-26T09:47:52;6.55;;;5.55;;
29500;SDS011;16450;50.288;10.966;2023-06-26T09:50:54;7.20;;;5.97;;
29500;SDS011;16450;50.288;10.966;2023-06-26T09:54:12;6.63;;;5.28;;
29500;SDS011;16450;50.288;10.966;2023-06-26T09:57:18;6.25;;;5.13;;
29500;SDS011;16450;50.288;10.966;2023-06-26T10:00:20;6.45;;;5.18;;
29500;SDS011;16450;50.288;10.966;2023-06-26T10:03:22;5.95;;;5.22;;
29500;SDS011;16450;50.288;10.966;2023-06-26T10:06:28;6.80;;;4.95;;
29500;SDS011;16450;50.288;10.966;2023-06-26T10:09:35;9.00;;;5.10;;
29500;SDS011;16450;50.288;10.966;2023-06-26T10:12:42;5.85;;;4.72;;
29500;SDS011;16450;50.288;10.966;2023-06-26T10:15:46;5.13;;;4.63;;
29500;SDS011;16450;50.288;10.966;2023-06-26T10:18:52;6.05;;;4.93;;
29500;SDS011;16450;50.288;10.966;2023-06-26T10:21:56;6.40;;;5.25;;
29500;SDS011;16450;50.288;10.966;2023-06-26T10:24:59;5.97;;;5.20;;
29500;SDS011;16450;50.288;10.966;2023-06-26T10:28:04;5.75;;;4.90;;
29500;SDS011;16450;50.288;10.966;2023-06-26T10:31:07;7.65;;;5.65;;
29500;SDS011;16450;50.288;10.966;2023-06-26T10:34:11;6.28;;;5.22;;
29500;SDS011;16450;50.288;10.966;2023-06-26T10:37:13;5.80;;;4.88;;
29500;SDS011;16450;50.288;10.966;2023-06-26T10:40:22;6.15;;;4.80;;
29500;SDS011;16450;50.288;10.966;2023-06-26T10:43:29;6.03;;;5.07;;
29500;SDS011;16450;50.288;10.966;2023-06-26T10:46:48;6.43;;;4.75;;
29500;SDS011;16450;50.288;10.966;2023-06-26T10:49:51;8.25;;;5.13;;
29500;SDS011;16450;50.288;10.966;2023-06-26T10:56:20;5.38;;;4.80;;
29500;SDS011;16450;50.288;10.966;2023-06-26T10:59:24;7.35;;;5.20;;
29500;SDS011;16450;50.288;10.966;2023-06-26T11:02:29;6.30;;;5.05;;
29500;SDS011;16450;50.288;10.966;2023-06-26T11:06:03;5.90;;;4.60;;
29500;SDS011;16450;50.288;10.966;2023-06-26T11:09:11;7.55;;;5.28;;
29500;SDS011;16450;50.288;10.966;2023-06-26T11:12:15;4.78;;;4.28;;
29500;SDS011;16450;50.288;10.966;2023-06-26T11:15:36;5.90;;;5.00;;
29500;SDS011;16450;50.288;10.966;2023-06-26T11:18:39;7.78;;;5.20;;
29500;SDS011;16450;50.288;10.966;2023-06-26T11:21:41;5.25;;;4.68;;
29500;SDS011;16450;50.288;10.966;2023-06-26T11:24:43;5.85;;;4.68;;
29500;SDS011;16450;50.288;10.966;2023-06-26T11:27:46;6.65;;;4.97;;
29500;SDS011;16450;50.288;10.966;2023-06-26T11:30:48;7.45;;;5.00;;
29500;SDS011;16450;50.288;10.966;2023-06-26T11:33:50;5.65;;;4.80;;
29500;SDS011;16450;50.288;10.966;2023-06-26T11:36:51;6.03;;;5.20;;
29500;SDS011;16450;50.288;10.966;2023-06-26T11:39:54;7.00;;;5.00;;
29500;SDS011;16450;50.288;10.966;2023-06-26T11:42:55;5.30;;;4.80;;
29500;SDS011;16450;50.288;10.966;2023-06-26T11:46:00;5.75;;;4.55;;
29500;SDS011;16450;50.288;10.966;2023-06-26T11:49:02;6.25;;;4.97;;
29500;SDS011;16450;50.288;10.966;2023-06-26T11:52:09;5.50;;;4.55;;
29500;SDS011;16450;50.288;10.966;2023-06-26T11:55:11;8.95;;;5.10;;
29500;SDS011;16450;50.288;10.966;2023-06-26T11:58:14;6.95;;;4.78;;
29500;SDS011;16450;50.288;10.966;2023-06-26T12:01:16;7.13;;;4.22;;
29500;SDS011;16450;50.288;10.966;2023-06-26T12:04:18;6.18;;;4.50;;
29500;SDS011;16450;50.288;10.966;2023-06-26T12:07:21;7.45;;;4.57;;
29500;SDS011;16450;50.288;10.966;2023-06-26T12:10:24;6.80;;;4.80;;
29500;SDS011;16450;50.288;10.966;2023-06-26T12:13:26;5.50;;;4.80;;
29500;SDS011;16450;50.288;10.966;2023-06-26T12:16:29;5.50;;;4.63;;
29500;SDS011;16450;50.288;10.966;2023-06-26T12:19:31;7.35;;;4.68;;
29500;SDS011;16450;50.288;10.966;2023-06-26T12:22:34;6.28;;;4.05;;
29500;SDS011;16450;50.288;10.966;2023-06-26T12:25:37;5.93;;;4.47;;
29500;SDS011;16450;50.288;10.966;2023-06-26T12:28:39;10.10;;;4.70;;
29500;SDS011;16450;50.288;10.966;2023-06-26T12:31:41;5.95;;;4.10;;
29500;SDS011;16450;50.288;10.966;2023-06-26T12:34:46;6.47;;;4.40;;
29500;SDS011;16450;50.288;10.966;2023-06-26T12:37:50;4.97;;;4.25;;
29500;SDS011;16450;50.288;10.966;2023-06-26T12:40:52;6.40;;;4.43;;
29500;SDS011;16450;50.288;10.966;2023-06-26T12:43:58;6.57;;;4.40;;
29500;SDS011;16450;50.288;10.966;2023-06-26T12:47:00;7.47;;;4.63;;
29500;SDS011;16450;50.288;10.966;2023-06-26T12:50:04;7.18;;;5.07;;
29500;SDS011;16450;50.288;10.966;2023-06-26T12:53:07;4.75;;;4.13;;
29500;SDS011;16450;50.288;10.966;2023-06-26T12:56:09;7.07;;;4.50;;
29500;SDS011;16450;50.288;10.966;2023-06-26T12:59:11;7.00;;;4.60;;
29500;SDS011;16450;50.288;10.966;2023-06-26T13:02:13;6.70;;;4.57;;
29500;SDS011;16450;50.288;10.966;2023-06-26T13:05:15;8.98;;;4.72;;
29500;SDS011;16450;50.288;10.966;2023-06-26T13:08:17;5.40;;;4.50;;
29500;SDS011;16450;50.288;10.966;2023-06-26T13:11:19;5.20;;;4.22;;
29500;SDS011;16450;50.288;10.966;2023-06-26T13:14:22;4.80;;;4.25;;
29500;SDS011;16450;50.288;10.966;2023-06-26T13:17:24;5.68;;;4.65;;
29500;SDS011;16450;50.288;10.966;2023-06-26T13:20:26;5.95;;;4.63;;
29500;SDS011;16450;50.288;10.966;2023-06-26T13:23:29;6.10;;;4.80;;
29500;SDS011;16450;50.288;10.966;2023-06-26T13:26:31;6.50;;;4.43;;
29500;SDS011;16450;50.288;10.966;2023-06-26T13:29:38;6.03;;;5.20;;
29500;SDS011;16450;50.288;10.966;2023-06-26T13:32:40;5.53;;;4.82;;
29500;SDS011;16450;50.288;10.966;2023-06-26T13:35:42;5.15;;;4.35;;
29500;SDS011;16450;50.288;10.966;2023-06-26T13:38:44;6.68;;;4.72;;
29500;SDS011;16450;50.288;10.966;2023-06-26T13:41:46;7.38;;;4.95;;
29500;SDS011;16450;50.288;10.966;2023-06-26T13:44:48;6.00;;;4.80;;
29500;SDS011;16450;50.288;10.966;2023-06-26T13:48:04;11.45;;;5.40;;
29500;SDS011;16450;50.288;10.966;2023-06-26T13:51:06;9.07;;;5.40;;
29500;SDS011;16450;50.288;10.966;2023-06-26T13:54:08;8.05;;;5.93;;
29500;SDS011;16450;50.288;10.966;2023-06-26T13:57:11;7.85;;;5.22;;
29500;SDS011;16450;50.288;10.966;2023-06-26T14:00:13;7.55;;;5.10;;
29500;SDS011;16450;50.288;10.966;2023-06-26T14:03:17;7.13;;;5.50;;
29500;SDS011;16450;50.288;10.966;2023-06-26T14:06:19;5.90;;;5.25;;
29500;SDS011;16450;50.288;10.966;2023-06-26T14:09:21;7.38;;;5.82;;
29500;SDS011;16450;50.288;10.966;2023-06-26T14:12:23;6.30;;;5.22;;
29500;SDS011;16450;50.288;10.966;2023-06-26T14:15:26;9.13;;;5.40;;
29500;SDS011;16450;50.288;10.966;2023-06-26T14:18:29;8.90;;;5.53;;
29500;SDS011;16450;50.288;10.966;2023-06-26T14:21:31;7.95;;;5.50;;
29500;SDS011;16450;50.288;10.966;2023-06-26T14:24:34;9.68;;;5.97;;
29500;SDS011;16450;50.288;10.966;2023-06-26T14:27:36;10.00;;;5.55;;
29500;SDS011;16450;50.288;10.966;2023-06-26T14:30:38;6.88;;;5.53;;
29500;SDS011;16450;50.288;10.966;2023-06-26T14:33:40;9.20;;;5.60;;
29500;SDS011;16450;50.288;10.966;2023-06-26T14:36:42;7.43;;;5.45;;
29500;SDS011;16450;50.288;10.966;2023-06-26T14:39:44;7.35;;;5.53;;
29500;SDS011;16450;50.288;10.966;2023-06-26T14:42:47;5.82;;;5.03;;
29500;SDS011;16450;50.288;10.966;2023-06-26T14:45:49;6.88;;;5.75;;
29500;SDS011;16450;50.288;10.966;2023-06-26T14:48:52;5.93;;;5.32;;
29500;SDS011;16450;50.288;10.966;2023-06-26T14:51:54;7.90;;;5.90;;
29500;SDS011;16450;50.288;10.966;2023-06-26T14:54:56;8.52;;;5.60;;
29500;SDS011;16450;50.288;10.966;2023-06-26T14:57:58;8.13;;;6.40;;
29500;SDS011;16450;50.288;10.966;2023-06-26T15:01:00;6.63;;;5.40;;
29500;SDS011;16450;50.288;10.966;2023-06-26T15:04:02;10.95;;;6.10;;
29500;SDS011;16450;50.288;10.966;2023-06-26T15:07:04;10.30;;;6.57;;
29500;SDS011;16450;50.288;10.966;2023-06-26T15:10:06;15.25;;;6.38;;
29500;SDS011;16450;50.288;10.966;2023-06-26T15:13:09;10.70;;;5.90;;
29500;SDS011;16450;50.288;10.966;2023-06-26T15:16:10;8.32;;;6.03;;
29500;SDS011;16450;50.288;10.966;2023-06-26T15:19:13;7.35;;;5.85;;
29500;SDS011;16450;50.288;10.966;2023-06-26T15:22:17;11.45;;;6.30;;
29500;SDS011;16450;50.288;10.966;2023-06-26T15:25:19;12.10;;;6.43;;
29500;SDS011;16450;50.288;10.966;2023-06-26T15:28:21;11.07;;;6.20;;
29500;SDS011;16450;50.288;10.966;2023-06-26T15:31:23;9.48;;;5.95;;
29500;SDS011;16450;50.288;10.966;2023-06-26T15:34:25;7.43;;;5.72;;
29500;SDS011;16450;50.288;10.966;2023-06-26T15:37:27;11.32;;;5.68;;
29500;SDS011;16450;50.288;10.966;2023-06-26T15:40:29;8.18;;;5.78;;
29500;SDS011;16450;50.288;10.966;2023-06-26T15:43:32;9.85;;;6.15;;
29500;SDS011;16450;50.288;10.966;2023-06-26T15:46:34;7.20;;;5.95;;
29500;SDS011;16450;50.288;10.966;2023-06-26T15:49:36;15.85;;;5.72;;
29500;SDS011;16450;50.288;10.966;2023-06-26T15:52:39;8.30;;;5.68;;
29500;SDS011;16450;50.288;10.966;2023-06-26T15:55:41;8.13;;;5.50;;
29500;SDS011;16450;50.288;10.966;2023-06-26T15:58:44;9.00;;;5.40;;
29500;SDS011;16450;50.288;10.966;2023-06-26T16:01:48;9.40;;;5.32;;
29500;SDS011;16450;50.288;10.966;2023-06-26T16:04:50;9.93;;;5.82;;
29500;SDS011;16450;50.288;10.966;2023-06-26T16:07:52;10.00;;;5.72;;
29500;SDS011;16450;50.288;10.966;2023-06-26T16:10:58;9.13;;;5.55;;
29500;SDS011;16450;50.288;10.966;2023-06-26T16:14:00;9.00;;;5.53;;
29500;SDS011;16450;50.288;10.966;2023-06-26T16:17:02;6.60;;;5.63;;
29500;SDS011;16450;50.288;10.966;2023-06-26T16:20:06;7.75;;;5.50;;
29500;SDS011;16450;50.288;10.966;2023-06-26T16:23:09;13.27;;;5.78;;
29500;SDS011;16450;50.288;10.966;2023-06-26T16:26:11;8.65;;;5.68;;
29500;SDS011;16450;50.288;10.966;2023-06-26T16:29:13;9.27;;;5.60;;
29500;SDS011;16450;50.288;10.966;2023-06-26T16:32:15;8.93;;;5.88;;
29500;SDS011;16450;50.288;10.966;2023-06-26T16:35:17;9.60;;;6.57;;
29500;SDS011;16450;50.288;10.966;2023-06-26T16:38:19;11.00;;;6.32;;
29500;SDS011;16450;50.288;10.966;2023-06-26T16:41:21;9.75;;;6.13;;
29500;SDS011;16450;50.288;10.966;2023-06-26T16:44:23;9.55;;;6.80;;
29500;SDS011;16450;50.288;10.966;2023-06-26T16:47:25;8.77;;;6.38;;
29500;SDS011;16450;50.288;10.966;2023-06-26T16:50:30;10.05;;;6.18;;
29500;SDS011;16450;50.288;10.966;2023-06-26T16:53:32;9.88;;;6.88;;
29500;SDS011;16450;50.288;10.966;2023-06-26T16:56:33;11.65;;;6.28;;
29500;SDS011;16450;50.288;10.966;2023-06-26T16:59:35;9.90;;;6.40;;
29500;SDS011;16450;50.288;10.966;2023-06-26T17:02:37;7.90;;;6.38;;
29500;SDS011;16450;50.288;10.966;2023-06-26T17:05:39;8.07;;;5.82;;
29500;SDS011;16450;50.288;10.966;2023-06-26T17:08:42;8.88;;;5.60;;
29500;SDS011;16450;50.288;10.966;2023-06-26T17:11:44;8.13;;;5.30;;
29500;SDS011;16450;50.288;10.966;2023-06-26T17:14:46;8.00;;;5.18;;
29500;SDS011;16450;50.288;10.966;2023-06-26T17:17:48;8.50;;;5.38;;
29500;SDS011;16450;50.288;10.966;2023-06-26T17:20:50;8.50;;;5.57;;
29500;SDS011;16450;50.288;10.966;2023-06-26T17:23:52;8.23;;;5.03;;
29500;SDS011;16450;50.288;10.966;2023-06-26T17:26:54;7.28;;;5.13;;
29500;SDS011;16450;50.288;10.966;2023-06-26T17:29:56;9.68;;;5.25;;
29500;SDS011;16450;50.288;10.966;2023-06-26T17:32:59;8.93;;;5.28;;
29500;SDS011;16450;50.288;10.966;2023-06-26T17:36:01;12.88;;;5.47;;
29500;SDS011;16450;50.288;10.966;2023-06-26T17:39:05;9.50;;;5.35;;
29500;SDS011;16450;50.288;10.966;2023-06-26T17:42:07;10.02;;;5.43;;
29500;SDS011;16450;50.288;10.966;2023-06-26T17:45:09;5.90;;;4.45;;
29500;SDS011;16450;50.288;10.966;2023-06-26T17:48:12;7.63;;;4.57;;
29500;SDS011;16450;50.288;10.966;2023-06-26T17:51:13;8.63;;;4.65;;
29500;SDS011;16450;50.288;10.966;2023-06-26T17:54:15;7.22;;;4.15;;
29500;SDS011;16450;50.288;10.966;2023-06-26T17:57:18;8.75;;;4.22;;
29500;SDS011;16450;50.288;10.966;2023-06-26T18:00:20;5.38;;;4.10;;
29500;SDS011;16450;50.288;10.966;2023-06-26T18:03:22;7.45;;;3.88;;
29500;SDS011;16450;50.288;10.966;2023-06-26T18:06:24;5.93;;;3.80;;
29500;SDS011;16450;50.288;10.966;2023-06-26T18:09:26;6.53;;;4.00;;